Time;durP1;ratioP1;P1;durP2;ratioP2;P2;SDS_P1;SDS_P2;PMS_P1;PMS_P2;Temp;Humidity;BMP_temperature;BMP_pressure;BME280_temperature;BME280_humidity;BME280_pressure;Samples;Min_cycle;Max_cycle;Signal;HPM_P1;HPM_P2
2021/01/20 00:00:28;;;;;;;15.20;10.17;;;2.90;94.40;;;;;;6225825;28;20476;-57
2021/01/20 00:03:31;;;;;;;13.97;9.33;;;2.90;94.40;;;;;;6226535;28;20452;-56
2021/01/20 00:06:33;;;;;;;11.53;9.37;;;2.90;94.20;;;;;;6226413;28;20582;-56
2021/01/20 00:09:35;;;;;;;15.00;9.63;;;2.90;94.20;;;;;;6225966;28;20472;-58
2021/01/20 00:12:37;;;;;;;10.60;8.50;;;2.90;94.40;;;;;;6226324;28;20451;-57
2021/01/20 00:15:39;;;;;;;13.03;9.10;;;2.90;94.30;;;;;;6226328;28;20454;-57
2021/01/20 00:18:42;;;;;;;10.70;7.97;;;3.00;94.20;;;;;;6221702;28;20468;-57
2021/01/20 00:21:45;;;;;;;11.00;8.00;;;3.00;94.10;;;;;;6225835;28;20986;-57
2021/01/20 00:24:47;;;;;;;12.20;9.20;;;3.00;94.00;;;;;;6226217;28;20456;-57
2021/01/20 00:27:49;;;;;;;8.43;7.03;;;3.00;94.00;;;;;;6219381;28;20794;-57
2021/01/20 00:30:54;;;;;;;9.10;7.00;;;3.00;93.90;;;;;;6201589;28;20534;-56
2021/01/20 00:33:56;;;;;;;10.43;6.70;;;3.10;93.90;;;;;;6201568;28;20476;-58
2021/01/20 00:36:59;;;;;;;9.77;7.77;;;3.00;93.60;;;;;;6201359;28;20473;-57
2021/01/20 00:40:01;;;;;;;8.93;7.00;;;3.00;93.80;;;;;;6201251;28;20475;-56
2021/01/20 00:43:04;;;;;;;8.83;6.13;;;3.00;93.70;;;;;;6201268;28;20785;-56
2021/01/20 00:46:06;;;;;;;9.33;6.33;;;3.10;93.80;;;;;;6201445;28;20492;-58
2021/01/20 00:49:09;;;;;;;8.10;6.10;;;3.10;93.70;;;;;;6200892;28;20929;-57
2021/01/20 00:52:11;;;;;;;11.70;7.50;;;3.20;93.70;;;;;;6200937;28;20480;-57
2021/01/20 00:55:14;;;;;;;14.10;10.40;;;3.10;93.60;;;;;;6200662;28;20987;-57
2021/01/20 00:58:17;;;;;;;19.27;14.00;;;3.10;93.60;;;;;;6202282;28;20481;-57
2021/01/20 01:01:19;;;;;;;19.13;15.23;;;2.90;93.90;;;;;;6224654;28;20469;-57
2021/01/20 01:04:25;;;;;;;20.67;17.80;;;2.80;94.10;;;;;;6225569;28;20487;-56
2021/01/20 01:07:27;;;;;;;22.90;18.40;;;2.80;94.30;;;;;;6225097;28;20479;-57
2021/01/20 01:10:30;;;;;;;30.13;20.93;;;2.80;94.40;;;;;;6224941;28;20471;-57
2021/01/20 01:13:32;;;;;;;33.23;19.63;;;2.70;94.50;;;;;;6225155;28;20478;-57
2021/01/20 01:16:36;;;;;;;30.97;19.83;;;2.50;94.80;;;;;;6225085;28;20471;-57
2021/01/20 01:19:39;;;;;;;32.73;20.60;;;2.50;95.00;;;;;;6222789;28;20471;-57
2021/01/20 01:22:41;;;;;;;30.87;19.50;;;2.40;95.20;;;;;;6226911;28;20807;-58
2021/01/20 01:25:43;;;;;;;28.03;19.33;;;2.30;95.40;;;;;;6222727;28;20486;-59
2021/01/20 01:28:48;;;;;;;26.00;18.13;;;2.30;95.60;;;;;;6213929;28;20481;-59
2021/01/20 01:31:50;;;;;;;25.07;19.10;;;2.30;95.60;;;;;;6203800;28;20479;-59
2021/01/20 01:34:53;;;;;;;26.50;16.57;;;2.40;96.10;;;;;;6205378;28;20477;-59
2021/01/20 01:37:55;;;;;;;27.53;19.90;;;2.40;95.70;;;;;;6187552;28;20473;-60
2021/01/20 01:40:57;;;;;;;26.80;20.23;;;2.40;95.80;;;;;;6180802;28;21319;-56
2021/01/20 01:44:00;;;;;;;23.50;17.63;;;2.40;95.80;;;;;;6181056;28;20477;-57
2021/01/20 01:47:02;;;;;;;20.67;17.10;;;2.40;95.80;;;;;;6181149;28;20477;-58
2021/01/20 01:50:06;;;;;;;26.27;17.00;;;2.40;95.90;;;;;;6180810;28;20988;-58
2021/01/20 01:53:09;;;;;;;20.30;15.80;;;2.50;95.90;;;;;;6180690;28;20924;-58
2021/01/20 01:56:11;;;;;;;20.87;14.47;;;2.50;95.70;;;;;;6180853;28;20474;-57
2021/01/20 01:59:14;;;;;;;29.50;18.03;;;2.60;95.70;;;;;;6189027;28;20818;-58
2021/01/20 02:02:17;;;;;;;23.30;16.67;;;2.60;95.70;;;;;;6204837;28;20468;-58
2021/01/20 02:05:20;;;;;;;22.90;17.50;;;2.60;95.70;;;;;;6204860;28;20486;-57
2021/01/20 02:08:25;;;;;;;27.70;18.70;;;2.60;95.90;;;;;;6204513;28;20500;-58
2021/01/20 02:11:47;;;;;;;28.53;20.10;;;2.60;95.80;;;;;;6204223;28;20806;-58
2021/01/20 02:15:01;;;;;;;26.43;19.90;;;2.40;95.70;;;;;;6204479;28;20478;-58
2021/01/20 02:18:07;;;;;;;28.97;20.77;;;2.40;96.00;;;;;;6204231;28;20481;-57
2021/01/20 02:21:38;;;;;;;34.47;21.70;;;2.40;96.10;;;;;;6200979;28;20991;-57
2021/01/20 02:24:48;;;;;;;31.13;20.80;;;2.30;96.30;;;;;;6177673;28;20583;-57
2021/01/20 02:28:01;;;;;;;33.23;23.40;;;2.30;97.10;;;;;;6185650;28;20477;-57
2021/01/20 02:31:06;;;;;;;32.57;21.90;;;2.40;96.60;;;;;;6187989;28;20974;-57
2021/01/20 02:34:13;;;;;;;33.20;23.80;;;2.40;96.60;;;;;;6188919;28;20476;-57
2021/01/20 02:37:17;;;;;;;31.90;23.53;;;2.30;96.30;;;;;;6189840;28;20472;-57
2021/01/20 02:40:20;;;;;;;40.03;24.63;;;2.30;96.30;;;;;;6188063;28;20488;-56
2021/01/20 02:43:22;;;;;;;33.33;23.60;;;2.30;96.30;;;;;;6188522;28;20473;-58
2021/01/20 02:46:29;;;;;;;34.47;24.60;;;2.30;96.50;;;;;;6188751;28;20821;-58
2021/01/20 02:49:32;;;;;;;35.93;24.10;;;2.30;96.40;;;;;;6188408;28;20478;-55
2021/01/20 02:52:42;;;;;;;33.47;24.00;;;2.20;96.40;;;;;;6189308;28;20815;-54
2021/01/20 02:55:49;;;;;;;34.90;23.37;;;2.20;96.80;;;;;;6179612;28;20485;-55
2021/01/20 02:58:52;;;;;;;33.43;22.30;;;2.20;96.50;;;;;;6179663;28;20594;-54
2021/01/20 03:01:59;;;;;;;36.67;22.73;;;2.20;96.50;;;;;;6179499;28;20818;-54
2021/01/20 03:05:02;;;;;;;26.70;20.57;;;2.20;96.60;;;;;;6179508;28;20478;-55
2021/01/20 03:08:05;;;;;;;28.17;19.13;;;2.20;96.70;;;;;;6179490;28;20474;-54
2021/01/20 03:11:07;;;;;;;22.33;18.80;;;2.30;96.70;;;;;;6179272;28;20469;-55
2021/01/20 03:14:10;;;;;;;22.90;16.57;;;2.30;96.60;;;;;;6179179;28;20973;-55
2021/01/20 03:17:13;;;;;;;18.50;14.50;;;2.40;96.80;;;;;;6179280;28;20481;-54
2021/01/20 03:20:16;;;;;;;19.20;14.37;;;2.40;96.70;;;;;;6179179;28;20480;-55
2021/01/20 03:23:18;;;;;;;18.20;13.47;;;2.50;96.70;;;;;;6179275;28;20488;-55
2021/01/20 03:26:20;;;;;;;17.07;12.10;;;2.50;96.70;;;;;;6179014;28;20470;-55
2021/01/20 03:29:22;;;;;;;18.40;13.37;;;2.50;96.70;;;;;;6178907;28;20492;-54
2021/01/20 03:32:25;;;;;;;17.00;11.23;;;2.50;96.60;;;;;;6179330;28;20493;-54
2021/01/20 03:35:28;;;;;;;12.30;9.80;;;2.50;96.60;;;;;;6169913;28;20496;-55
2021/01/20 03:38:30;;;;;;;12.63;9.30;;;2.50;96.70;;;;;;6178312;28;20482;-55
2021/01/20 03:41:32;;;;;;;16.37;10.77;;;2.50;96.60;;;;;;6178392;28;20470;-55
2021/01/20 03:44:34;;;;;;;32.00;18.70;;;2.50;96.70;;;;;;6178195;28;20474;-55
2021/01/20 03:47:37;;;;;;;31.03;21.03;;;2.30;96.70;;;;;;6178257;28;20819;-55
2021/01/20 03:50:40;;;;;;;26.53;19.90;;;2.30;96.70;;;;;;6178189;28;20482;-55
2021/01/20 03:53:44;;;;;;;31.13;20.73;;;2.10;96.80;;;;;;6178329;28;20481;-54
2021/01/20 03:56:47;;;;;;;33.50;21.17;;;2.10;97.10;;;;;;6178056;28;20478;-54
2021/01/20 03:59:49;;;;;;;30.53;21.43;;;2.10;97.20;;;;;;6178069;28;20489;-55
2021/01/20 04:02:52;;;;;;;31.00;20.70;;;2.00;97.30;;;;;;6178068;28;20561;-55
2021/01/20 04:05:54;;;;;;;27.50;19.90;;;2.10;97.40;;;;;;6178386;28;20481;-55
2021/01/20 04:08:56;;;;;;;25.23;18.90;;;2.00;97.40;;;;;;6178010;28;20489;-55
2021/01/20 04:11:58;;;;;;;34.60;21.43;;;2.10;97.60;;;;;;6177659;28;20474;-55
2021/01/20 04:15:00;;;;;;;29.70;19.70;;;2.10;97.70;;;;;;6178265;28;20481;-55
2021/01/20 04:18:04;;;;;;;31.27;19.97;;;2.10;97.70;;;;;;6177823;28;20566;-55
2021/01/20 04:21:06;;;;;;;31.37;19.90;;;2.00;97.80;;;;;;6177900;28;20490;-55
2021/01/20 04:24:10;;;;;;;28.53;20.53;;;2.00;97.80;;;;;;6177815;28;20827;-55
2021/01/20 04:27:12;;;;;;;24.03;16.83;;;2.00;97.90;;;;;;6177500;28;20995;-55
2021/01/20 04:30:15;;;;;;;16.50;12.93;;;2.00;97.90;;;;;;6178047;28;20791;-54
2021/01/20 04:33:21;;;;;;;16.00;12.27;;;1.90;97.80;;;;;;6177797;28;20958;-54
2021/01/20 04:36:23;;;;;;;13.47;11.73;;;1.90;98.10;;;;;;6177776;28;20816;-54
2021/01/20 04:39:25;;;;;;;10.13;8.80;;;1.80;98.10;;;;;;6180339;28;20473;-54
2021/01/20 04:42:28;;;;;;;15.10;9.27;;;1.80;98.20;;;;;;6184905;28;20535;-55
2021/01/20 04:45:30;;;;;;;10.70;9.33;;;1.80;98.20;;;;;;6188633;28;20961;-54
2021/01/20 04:48:36;;;;;;;13.00;9.23;;;1.80;98.20;;;;;;6188660;28;20805;-54
2021/01/20 04:51:42;;;;;;;10.93;8.60;;;1.90;98.10;;;;;;6189441;28;20517;-55
2021/01/20 04:54:44;;;;;;;10.40;8.53;;;1.90;98.10;;;;;;6189632;28;20897;-54
2021/01/20 04:57:47;;;;;;;13.27;9.37;;;1.90;97.80;;;;;;6200888;28;20488;-55
2021/01/20 05:00:52;;;;;;;11.43;8.37;;;1.90;97.90;;;;;;6200879;28;20840;-54
2021/01/20 05:03:56;;;;;;;9.13;7.60;;;1.90;97.90;;;;;;6200956;28;20487;-55
2021/01/20 05:07:00;;;;;;;11.37;9.63;;;1.90;97.90;;;;;;6200525;28;20476;-54
2021/01/20 05:10:03;;;;;;;9.43;7.97;;;1.80;98.10;;;;;;6200593;28;20476;-54
2021/01/20 05:13:22;;;;;;;9.53;7.87;;;1.70;98.30;;;;;;6185902;28;20573;-55
2021/01/20 05:16:27;;;;;;;8.37;7.53;;;1.60;98.60;;;;;;6201199;28;20503;-55
2021/01/20 05:19:37;;;;;;;13.70;7.73;;;1.70;98.70;;;;;;6197747;28;20505;-55
2021/01/20 05:22:55;;;;;;;7.70;7.10;;;1.60;98.60;;;;;;6188705;28;20962;-55
2021/01/20 05:25:58;;;;;;;10.60;7.50;;;1.70;98.70;;;;;;6179858;28;20474;-58
2021/01/20 05:29:00;;;;;;;11.60;7.40;;;1.70;98.60;;;;;;6176656;28;20483;-55
2021/01/20 05:32:15;;;;;;;9.80;6.33;;;1.60;98.60;;;;;;6181496;28;20464;-55
2021/01/20 05:35:20;;;;;;;8.57;6.67;;;1.60;98.60;;;;;;6199589;28;20548;-57
2021/01/20 05:38:33;;;;;;;7.17;6.47;;;1.70;98.80;;;;;;6200411;28;20477;-58
2021/01/20 05:41:35;;;;;;;9.70;6.73;;;1.70;98.80;;;;;;6200805;28;20489;-58
2021/01/20 05:44:39;;;;;;;8.00;7.10;;;1.70;98.80;;;;;;6196093;28;21023;-58
2021/01/20 05:48:00;;;;;;;9.53;7.27;;;1.70;98.80;;;;;;6200738;28;20616;-58
2021/01/20 05:51:04;;;;;;;10.47;7.90;;;1.70;98.70;;;;;;6200547;28;20477;-57
2021/01/20 05:54:08;;;;;;;9.17;7.80;;;1.60;98.80;;;;;;6200373;28;20483;-57
2021/01/20 05:57:12;;;;;;;7.37;6.23;;;1.60;98.90;;;;;;6200825;28;20465;-58
2021/01/20 06:00:15;;;;;;;8.87;7.67;;;1.60;99.10;;;;;;6200534;28;20486;-55
2021/01/20 06:03:17;;;;;;;10.17;8.00;;;1.60;99.10;;;;;;6200726;28;20812;-55
2021/01/20 06:06:21;;;;;;;8.00;6.70;;;1.50;99.10;;;;;;6200809;28;20952;-55
2021/01/20 06:09:25;;;;;;;8.00;6.90;;;1.60;99.10;;;;;;6204460;28;20832;-54
2021/01/20 06:12:27;;;;;;;8.53;7.30;;;1.50;99.10;;;;;;6204846;28;20477;-55
2021/01/20 06:15:29;;;;;;;8.20;7.40;;;1.50;99.10;;;;;;6204826;28;20467;-54
2021/01/20 06:18:37;;;;;;;9.17;7.33;;;1.50;99.20;;;;;;6204907;28;20479;-54
2021/01/20 06:21:41;;;;;;;8.97;7.17;;;1.50;99.20;;;;;;6204943;28;20479;-54
2021/01/20 06:24:47;;;;;;;10.33;7.33;;;1.40;99.10;;;;;;6204789;28;20456;-55
2021/01/20 06:27:54;;;;;;;8.33;6.67;;;1.40;99.20;;;;;;6204462;28;20461;-55
2021/01/20 06:30:57;;;;;;;10.23;6.53;;;1.40;99.20;;;;;;6204665;28;20468;-55
2021/01/20 06:34:04;;;;;;;9.33;6.90;;;1.30;99.10;;;;;;6204436;28;20479;-54
2021/01/20 06:37:34;;;;;;;10.37;7.57;;;1.40;99.30;;;;;;6204262;28;20480;-55
2021/01/20 06:40:38;;;;;;;7.80;6.47;;;1.40;99.00;;;;;;6203982;28;20491;-55
2021/01/20 06:43:45;;;;;;;11.03;8.20;;;1.50;99.50;;;;;;6204336;28;20949;-55
2021/01/20 06:47:00;;;;;;;9.93;7.37;;;1.50;99.20;;;;;;6194913;28;20477;-55
2021/01/20 06:50:06;;;;;;;10.90;7.23;;;1.60;99.20;;;;;;6203978;28;20575;-55
2021/01/20 06:53:09;;;;;;;14.00;8.23;;;1.60;99.10;;;;;;6203818;28;20472;-55
2021/01/20 06:56:29;;;;;;;10.37;8.30;;;1.70;99.10;;;;;;6203605;28;20974;-56
2021/01/20 06:59:32;;;;;;;10.47;8.77;;;1.70;99.00;;;;;;6203487;28;20477;-54
2021/01/20 07:02:34;;;;;;;13.17;8.10;;;1.80;98.90;;;;;;6203478;28;20984;-55
2021/01/20 07:05:39;;;;;;;10.00;7.93;;;1.80;98.70;;;;;;6203411;28;20476;-55
2021/01/20 07:08:52;;;;;;;10.27;7.63;;;1.80;98.50;;;;;;6203222;28;20631;-55
2021/01/20 07:12:07;;;;;;;15.60;12.10;;;1.80;98.30;;;;;;6203316;28;20787;-55
2021/01/20 07:15:12;;;;;;;11.63;10.40;;;1.80;98.10;;;;;;6203270;28;20976;-55
2021/01/20 07:18:17;;;;;;;10.73;8.13;;;1.80;98.20;;;;;;6202186;28;20484;-55
2021/01/20 07:21:20;;;;;;;12.60;8.43;;;1.90;98.20;;;;;;6203116;28;20485;-56
2021/01/20 07:24:23;;;;;;;12.07;8.00;;;2.00;98.20;;;;;;6202832;28;20965;-55
2021/01/20 07:27:25;;;;;;;10.87;6.70;;;2.10;98.10;;;;;;6202927;28;20488;-55
2021/01/20 07:30:29;;;;;;;7.00;6.10;;;2.10;97.90;;;;;;6202473;28;20987;-58
2021/01/20 07:33:31;;;;;;;6.97;6.03;;;2.20;98.00;;;;;;6202824;28;20459;-56
2021/01/20 07:36:34;;;;;;;7.53;6.53;;;2.40;98.00;;;;;;6202611;28;20920;-56
2021/01/20 07:39:38;;;;;;;11.97;7.40;;;2.50;97.60;;;;;;6202498;28;20937;-60
2021/01/20 07:42:40;;;;;;;8.43;7.00;;;2.60;97.50;;;;;;6202345;28;20491;-59
2021/01/20 07:45:45;;;;;;;8.97;7.30;;;2.70;97.30;;;;;;6202924;28;20437;-59
2021/01/20 07:48:48;;;;;;;7.07;6.33;;;2.90;97.10;;;;;;6198618;28;20544;-58
2021/01/20 07:52:00;;;;;;;8.17;6.00;;;3.00;96.90;;;;;;6202724;28;20529;-57
2021/01/20 07:55:04;;;;;;;7.50;5.27;;;3.10;96.70;;;;;;6202267;28;20469;-56
2021/01/20 07:58:06;;;;;;;6.43;5.83;;;3.20;96.20;;;;;;6202308;28;20514;-56
2021/01/20 08:01:08;;;;;;;12.57;10.30;;;3.20;96.10;;;;;;6202472;28;20469;-57
2021/01/20 08:04:21;;;;;;;22.73;12.90;;;3.10;95.80;;;;;;6202323;28;20461;-59
2021/01/20 08:07:23;;;;;;;23.10;14.37;;;2.80;95.60;;;;;;6202108;28;20488;-58
2021/01/20 08:10:27;;;;;;;24.83;14.53;;;2.60;95.90;;;;;;6201793;28;20959;-59
2021/01/20 08:13:31;;;;;;;24.23;13.40;;;2.50;96.20;;;;;;6202348;28;20476;-58
2021/01/20 08:16:34;;;;;;;19.47;13.70;;;2.40;96.40;;;;;;6202330;28;20480;-60
2021/01/20 08:19:40;;;;;;;23.57;13.77;;;2.30;96.50;;;;;;6201858;28;20473;-59
2021/01/20 08:22:46;;;;;;;20.03;14.33;;;2.30;96.70;;;;;;6202099;28;20608;-59
2021/01/20 08:25:49;;;;;;;25.67;13.40;;;2.20;97.00;;;;;;6201539;28;20558;-58
2021/01/20 08:29:10;;;;;;;25.07;15.77;;;2.10;97.00;;;;;;6202090;28;20473;-58
2021/01/20 08:32:14;;;;;;;20.97;13.20;;;2.10;97.30;;;;;;6201704;28;20473;-57
2021/01/20 08:35:28;;;;;;;21.30;13.60;;;2.30;97.40;;;;;;6201770;28;20552;-59
2021/01/20 08:38:30;;;;;;;20.80;13.97;;;2.40;97.10;;;;;;6200845;28;20473;-56
2021/01/20 08:41:34;;;;;;;24.60;14.50;;;2.50;97.00;;;;;;6201427;28;20473;-55
2021/01/20 08:44:36;;;;;;;21.23;15.27;;;2.70;97.00;;;;;;6201317;28;20473;-54
2021/01/20 08:47:47;;;;;;;16.17;14.47;;;2.90;96.60;;;;;;6201521;28;20835;-55
2021/01/20 08:50:52;;;;;;;23.43;16.40;;;3.00;96.50;;;;;;6201195;28;20969;-59
2021/01/20 08:54:09;;;;;;;31.63;16.67;;;3.20;96.30;;;;;;6201027;28;20597;-55
2021/01/20 08:57:18;;;;;;;25.83;16.53;;;3.20;95.90;;;;;;6201498;28;20814;-57
2021/01/20 09:00:42;;;;;;;31.67;19.80;;;3.30;95.90;;;;;;6200708;28;20953;-58
2021/01/20 09:03:54;;;;;;;31.60;18.13;;;3.40;95.80;;;;;;6201937;28;20489;-55
2021/01/20 09:06:58;;;;;;;26.20;17.90;;;3.60;96.20;;;;;;6201007;28;20854;-60
2021/01/20 09:10:01;;;;;;;32.40;19.77;;;3.80;95.50;;;;;;6200890;28;20492;-59
2021/01/20 09:13:04;;;;;;;24.30;15.80;;;4.00;95.30;;;;;;6201097;28;20492;-57
2021/01/20 09:16:07;;;;;;;22.93;16.97;;;4.10;95.00;;;;;;6200909;28;20473;-59
2021/01/20 09:19:09;;;;;;;20.03;14.87;;;4.20;94.70;;;;;;6184712;28;20795;-59
2021/01/20 09:22:11;;;;;;;18.63;13.63;;;4.30;94.20;;;;;;6177135;28;20962;-60
2021/01/20 09:25:14;;;;;;;18.17;13.00;;;4.40;94.10;;;;;;6177420;28;20474;-60
2021/01/20 09:28:17;;;;;;;16.73;12.33;;;4.60;93.70;;;;;;6176891;28;20488;-60
2021/01/20 09:31:20;;;;;;;20.13;12.23;;;4.70;93.40;;;;;;6177967;28;20616;-60
2021/01/20 09:34:22;;;;;;;17.60;12.53;;;4.90;93.10;;;;;;6184494;28;20481;-60
2021/01/20 09:37:24;;;;;;;17.33;11.90;;;5.00;92.60;;;;;;6176091;28;20500;-60
2021/01/20 09:40:28;;;;;;;20.33;13.03;;;5.00;92.10;;;;;;6184114;28;20480;-60
2021/01/20 09:43:31;;;;;;;12.60;10.00;;;5.20;92.10;;;;;;6186680;28;20478;-59
2021/01/20 09:46:33;;;;;;;11.50;9.20;;;5.30;91.50;;;;;;6203724;28;20530;-66
2021/01/20 09:49:36;;;;;;;14.90;9.43;;;5.50;90.70;;;;;;6205186;28;20488;-65
2021/01/20 09:52:38;;;;;;;13.57;9.83;;;5.60;90.70;;;;;;6204988;28;20588;-59
2021/01/20 09:55:40;;;;;;;15.23;10.60;;;5.80;90.30;;;;;;6204960;28;20559;-59
2021/01/20 09:58:47;;;;;;;15.60;11.57;;;5.90;90.30;;;;;;6200275;28;20487;-60
2021/01/20 10:01:49;;;;;;;14.43;11.57;;;6.10;90.10;;;;;;6204551;28;20968;-59
2021/01/20 10:04:52;;;;;;;14.93;10.83;;;6.10;89.80;;;;;;6205003;28;20556;-60
2021/01/20 10:07:54;;;;;;;9.83;8.20;;;6.20;89.50;;;;;;6204646;28;20480;-60
2021/01/20 10:10:56;;;;;;;19.40;10.30;;;6.20;87.30;;;;;;6204770;28;20487;-62
2021/01/20 10:13:59;;;;;;;10.03;9.00;;;6.30;87.40;;;;;;6204452;28;20473;-58
2021/01/20 10:17:02;;;;;;;16.33;9.80;;;6.40;85.60;;;;;;6204441;28;20472;-63
2021/01/20 10:20:06;;;;;;;12.73;9.30;;;6.60;84.20;;;;;;6204074;28;20495;-56
2021/01/20 10:23:09;;;;;;;13.83;9.17;;;6.80;83.90;;;;;;6204212;28;20480;-56
2021/01/20 10:26:12;;;;;;;11.27;9.27;;;7.00;83.80;;;;;;6204435;28;20477;-62
2021/01/20 10:29:15;;;;;;;17.13;10.60;;;7.10;83.10;;;;;;6204464;28;20477;-62
2021/01/20 10:32:17;;;;;;;14.03;9.20;;;7.30;82.50;;;;;;6204438;28;20968;-57
2021/01/20 10:35:20;;;;;;;14.97;9.00;;;7.40;80.40;;;;;;6204135;28;20473;-56
2021/01/20 10:38:22;;;;;;;10.33;8.10;;;7.70;78.60;;;;;;6203685;28;20469;-61
2021/01/20 10:41:25;;;;;;;12.73;8.80;;;8.20;77.60;;;;;;6201321;28;20472;-62
2021/01/20 10:44:28;;;;;;;12.00;9.90;;;9.50;74.80;;;;;;6204197;28;20473;-58
2021/01/20 10:47:30;;;;;;;10.13;8.80;;;12.60;68.70;;;;;;6203785;28;20473;-59
2021/01/20 10:50:33;;;;;;;16.57;10.03;;;14.80;54.50;;;;;;6203431;28;20988;-55
2021/01/20 10:53:38;;;;;;;12.30;8.70;;;14.50;52.10;;;;;;6202028;28;20963;-59
2021/01/20 10:56:41;;;;;;;10.93;8.40;;;13.60;51.60;;;;;;6203805;28;20473;-60
2021/01/20 10:59:44;;;;;;;13.47;8.83;;;12.70;52.10;;;;;;6203316;28;20484;-59
2021/01/20 11:02:46;;;;;;;13.33;10.20;;;12.00;53.70;;;;;;6203090;28;20485;-59
2021/01/20 11:05:49;;;;;;;12.40;7.30;;;11.50;55.20;;;;;;6203068;28;20818;-54
2021/01/20 11:08:51;;;;;;;13.93;8.90;;;13.20;54.20;;;;;;6202953;28;20825;-55
2021/01/20 11:11:53;;;;;;;15.07;8.37;;;16.40;48.30;;;;;;6203184;28;20473;-59
2021/01/20 11:14:56;;;;;;;16.43;8.80;;;17.30;43.70;;;;;;6202790;28;20480;-63
2021/01/20 11:17:58;;;;;;;12.33;8.50;;;16.60;42.50;;;;;;6202813;28;20477;-63
2021/01/20 11:21:01;;;;;;;18.40;10.67;;;16.60;42.20;;;;;;6190702;28;20481;-58
2021/01/20 11:24:04;;;;;;;14.90;8.57;;;19.60;40.10;;;;;;6189381;28;20496;-57
2021/01/20 11:27:06;;;;;;;10.73;9.07;;;22.90;34.60;;;;;;6188213;28;20222;-58
2021/01/20 11:30:11;;;;;;;13.57;9.80;;;25.50;29.90;;;;;;6190237;28;21497;-58
2021/01/20 11:33:13;;;;;;;10.43;9.37;;;28.20;26.60;;;;;;6185380;28;20215;-58
2021/01/20 11:36:15;;;;;;;12.43;10.20;;;30.50;23.70;;;;;;6189212;28;20237;-59
2021/01/20 11:39:18;;;;;;;13.70;10.60;;;31.90;22.00;;;;;;6187438;28;20237;-58
2021/01/20 11:42:20;;;;;;;11.25;10.27;;;33.20;20.50;;;;;;6186698;28;20555;-59
2021/01/20 11:45:23;;;;;;;11.82;10.63;;;34.30;19.50;;;;;;6202440;28;20228;-59
2021/01/20 11:48:26;;;;;;;12.25;11.35;;;35.10;18.60;;;;;;6202032;28;20225;-62
2021/01/20 11:51:28;;;;;;;15.35;11.68;;;35.50;18.00;;;;;;6202384;28;20241;-61
2021/01/20 11:54:32;;;;;;;12.43;11.32;;;35.30;17.80;;;;;;6201675;28;20213;-60
2021/01/20 11:57:34;;;;;;;11.68;10.55;;;35.10;17.70;;;;;;6188164;28;20693;-62
2021/01/20 12:00:37;;;;;;;12.85;11.48;;;34.80;17.60;;;;;;6177767;28;20223;-59
2021/01/20 12:03:39;;;;;;;12.07;10.98;;;34.90;17.60;;;;;;6173916;28;20222;-62
2021/01/20 12:06:42;;;;;;;12.02;10.40;;;35.50;17.20;;;;;;6182919;28;20205;-62
2021/01/20 12:09:44;;;;;;;13.07;11.40;;;35.00;17.20;;;;;;6189775;28;20236;-62
2021/01/20 12:12:47;;;;;;;12.30;11.18;;;35.10;17.50;;;;;;6189702;28;20198;-62
2021/01/20 12:15:50;;;;;;;11.60;10.60;;;34.90;17.00;;;;;;6202004;28;20212;-61
2021/01/20 12:18:52;;;;;;;13.02;11.77;;;34.20;17.30;;;;;;6202208;28;20229;-61
2021/01/20 12:21:55;;;;;;;12.98;11.73;;;34.40;17.40;;;;;;6201758;28;20937;-60
2021/01/20 12:24:57;;;;;;;12.43;11.23;;;34.60;16.80;;;;;;6201601;28;20287;-60
2021/01/20 12:27:59;;;;;;;13.43;12.23;;;33.00;17.70;;;;;;6201341;28;20804;-60
2021/01/20 12:31:02;;;;;;;17.05;12.23;;;33.10;17.80;;;;;;6201586;28;20246;-61
2021/01/20 12:34:05;;;;;;;13.07;11.93;;;32.30;18.10;;;;;;6201242;28;20236;-61
2021/01/20 12:37:07;;;;;;;13.40;12.10;;;32.10;18.80;;;;;;6201330;28;20229;-61
2021/01/20 12:40:10;;;;;;;14.23;12.90;;;32.70;18.20;;;;;;6201349;28;20240;-61
2021/01/20 12:43:12;;;;;;;13.15;11.38;;;33.10;17.90;;;;;;6191991;28;20239;-61
2021/01/20 12:46:16;;;;;;;13.18;11.93;;;33.90;17.80;;;;;;6180148;28;20233;-60
2021/01/20 12:49:37;;;;;;;13.88;11.88;;;34.00;17.40;;;;;;6190620;28;20233;-61
2021/01/20 12:52:39;;;;;;;12.20;11.02;;;34.50;17.30;;;;;;6181204;28;20229;-62
2021/01/20 12:55:41;;;;;;;11.27;10.38;;;34.90;16.90;;;;;;6177080;28;20300;-60
2021/01/20 12:58:43;;;;;;;12.20;10.93;;;33.30;17.20;;;;;;6176916;28;20317;-63
2021/01/20 13:01:46;;;;;;;12.73;11.18;;;33.20;17.90;;;;;;6176737;28;20230;-62
2021/01/20 13:04:49;;;;;;;13.25;11.45;;;34.10;17.40;;;;;;6176882;28;20253;-61
2021/01/20 13:07:51;;;;;;;11.50;10.30;;;34.80;16.90;;;;;;6176989;28;20319;-61
2021/01/20 13:10:54;;;;;;;12.07;10.82;;;34.80;16.90;;;;;;6176331;28;20566;-64
2021/01/20 13:13:56;;;;;;;12.15;10.90;;;34.60;16.80;;;;;;6176434;28;20244;-62
2021/01/20 13:16:59;;;;;;;11.15;10.20;;;34.00;17.20;;;;;;6175781;28;20559;-62
2021/01/20 13:20:02;;;;;;;10.10;8.85;;;33.80;16.90;;;;;;6176623;28;20244;-60
2021/01/20 13:23:05;;;;;;;11.87;10.00;;;33.00;17.20;;;;;;6176444;28;20377;-61
2021/01/20 13:26:07;;;;;;;11.47;10.37;;;32.20;18.10;;;;;;6176250;28;20704;-60
2021/01/20 13:29:09;;;;;;;10.90;9.77;;;31.30;18.50;;;;;;6176246;28;20579;-61
2021/01/20 13:32:13;;;;;;;11.20;10.10;;;30.90;18.60;;;;;;6183520;28;20239;-61
2021/01/20 13:35:15;;;;;;;11.27;10.07;;;30.60;18.50;;;;;;6186062;28;20232;-60
2021/01/20 13:38:18;;;;;;;10.00;9.10;;;29.60;19.50;;;;;;6177975;28;20237;-64
2021/01/20 13:41:20;;;;;;;10.33;9.30;;;29.30;19.70;;;;;;6177258;28;20369;-61
2021/01/20 13:44:22;;;;;;;9.90;8.17;;;30.00;19.30;;;;;;6199922;28;20240;-60
2021/01/20 13:47:25;;;;;;;12.03;9.50;;;30.40;18.90;;;;;;6198271;28;20237;-61
2021/01/20 13:50:28;;;;;;;10.80;8.27;;;30.20;18.70;;;;;;6197980;28;20590;-60
2021/01/20 13:53:38;;;;;;;10.03;9.07;;;29.90;19.20;;;;;;6197465;28;20701;-60
2021/01/20 13:56:40;;;;;;;12.40;8.33;;;29.80;19.20;;;;;;6197606;28;20236;-60
2021/01/20 13:59:43;;;;;;;16.50;8.70;;;29.90;19.20;;;;;;6198101;28;20703;-60
2021/01/20 14:02:46;;;;;;;8.93;8.13;;;29.90;19.10;;;;;;6199964;28;20683;-60
2021/01/20 14:05:49;;;;;;;9.57;8.80;;;30.10;19.10;;;;;;6199847;28;20225;-60
2021/01/20 14:08:51;;;;;;;9.40;8.60;;;30.10;19.00;;;;;;6200064;28;20233;-60
2021/01/20 14:11:53;;;;;;;9.00;8.17;;;28.80;19.40;;;;;;6200277;28;20229;-60
2021/01/20 14:14:56;;;;;;;9.30;8.47;;;28.20;20.10;;;;;;6196113;28;20233;-60
2021/01/20 14:17:59;;;;;;;9.80;8.90;;;27.30;20.70;;;;;;6200016;28;20255;-60
2021/01/20 14:21:05;;;;;;;10.80;9.20;;;26.90;21.20;;;;;;6200275;28;20233;-60
2021/01/20 14:24:08;;;;;;;11.40;10.30;;;25.40;22.20;;;;;;6199774;28;20230;-60
2021/01/20 14:27:11;;;;;;;11.73;10.53;;;23.90;23.50;;;;;;6200050;28;20689;-60
2021/01/20 14:30:14;;;;;;;12.17;9.60;;;23.10;24.20;;;;;;6204292;28;20716;-61
2021/01/20 14:33:18;;;;;;;12.77;9.80;;;21.90;25.00;;;;;;6204485;28;20578;-57
2021/01/20 14:36:21;;;;;;;10.40;9.50;;;20.70;26.00;;;;;;6208245;28;20244;-58
2021/01/20 14:39:24;;;;;;;10.97;9.77;;;19.20;27.40;;;;;;6228413;28;20645;-58
2021/01/20 14:42:26;;;;;;;9.37;8.47;;;18.20;28.50;;;;;;6227851;28;20476;-58
2021/01/20 14:45:28;;;;;;;10.00;9.00;;;17.30;29.50;;;;;;6228336;28;20476;-60
2021/01/20 14:48:31;;;;;;;10.30;9.23;;;16.50;30.40;;;;;;6227875;28;20476;-57
2021/01/20 14:51:34;;;;;;;10.33;7.93;;;15.60;32.00;;;;;;6228392;28;20549;-61
2021/01/20 14:54:36;;;;;;;13.13;9.30;;;14.80;33.30;;;;;;6228238;28;20440;-61
2021/01/20 14:57:38;;;;;;;10.73;8.73;;;14.20;34.50;;;;;;6227834;28;20522;-59
2021/01/20 15:00:40;;;;;;;13.10;8.60;;;13.60;36.00;;;;;;6228390;28;20444;-59
2021/01/20 15:03:43;;;;;;;10.17;8.67;;;13.00;37.10;;;;;;6228274;28;20486;-63
2021/01/20 15:06:46;;;;;;;9.07;8.17;;;12.60;38.40;;;;;;6227814;28;20775;-61
2021/01/20 15:09:48;;;;;;;9.23;8.33;;;12.30;39.30;;;;;;6227579;28;20468;-59
2021/01/20 15:12:50;;;;;;;20.90;10.53;;;12.20;40.00;;;;;;6227732;28;20528;-59
2021/01/20 15:15:53;;;;;;;11.27;8.77;;;11.90;40.90;;;;;;6227743;28;20464;-58
2021/01/20 15:18:56;;;;;;;10.27;9.17;;;11.60;41.30;;;;;;6227015;28;20464;-59
2021/01/20 15:21:58;;;;;;;15.33;8.97;;;11.40;42.20;;;;;;6225642;28;20820;-60
2021/01/20 15:25:01;;;;;;;13.17;8.00;;;11.10;43.00;;;;;;6225928;28;20468;-59
2021/01/20 15:28:04;;;;;;;10.53;8.87;;;10.90;43.90;;;;;;6226639;28;20636;-58
2021/01/20 15:31:09;;;;;;;13.20;8.10;;;10.60;44.50;;;;;;6226365;28;20472;-59
2021/01/20 15:34:12;;;;;;;16.23;11.40;;;10.50;45.00;;;;;;6226618;28;20472;-59
2021/01/20 15:37:14;;;;;;;14.33;10.07;;;10.50;45.50;;;;;;6225700;28;20476;-57
2021/01/20 15:40:17;;;;;;;12.47;8.80;;;10.40;46.10;;;;;;6213713;28;20972;-59
2021/01/20 15:43:24;;;;;;;11.10;9.90;;;10.30;46.40;;;;;;6212654;28;20460;-59
2021/01/20 15:46:26;;;;;;;15.13;10.20;;;10.20;46.90;;;;;;6210049;28;20973;-59
2021/01/20 15:49:30;;;;;;;14.60;9.80;;;10.10;47.50;;;;;;6217335;28;20476;-59